EHGG

Eelde Airport

Groningen, The Netherlands
METAR EHGG 211525Z AUTO 05008KT 350V100 9999 NCD 18/08 Q1021 NOSIG
Observed Flight Rules
Apr-21 @ 15:25 UTC (16 minutes ago) Visual Flight Rules
Wind Visibility Clouds
50° at 8 knots 10,000+ meters
  • Clear skies
Temperatures Readings
Current 18°C / 64°F
Dewpoint 8°C / 46°F
Humidity 52%
Altimeter 30.15" Hg
Pressure 1021 hPa
Elevation 4
METAR EHGG 211525Z AUTO 05008KT 350V100 9999 NCD 18/08 Q1021 NOSIG
Observed Flight Rules
Apr-21 @ 15:25 UTC
(16 minutes ago)
VFR
Wind Visibility
50° at 8 knots 10,000+ meters
Clouds
  • Clear skies
Temperature Dewpoint
18°C / 64°F 8°C / 46°F
Humidity Altimeter Pressure
52% 30.15" Hg 1021 hPa